Terminal Aerodrome Forecast
Issued by NWS Spokane, WA

Home | Current Version | Previous Version | Text Only | Print | Product List | Glossary On
Versions: 1 2 3 4 5 6 7 8 9 10 11 12 13 14 15
000
FTUS46 KOTX 290520
TAFLWS
TAF
KLWS 290520Z 2906/3006 14005KT P6SM SCT050 BKN150
     FM291000 12005KT P6SM -RA BKN050 OVC100
     FM291500 15009KT P6SM -RA SCT025 OVC045=

USA.gov is the U.S. government's official web portal to all federal, state and local government web resources and services.